createdAt,value
2018-02-15T04:32:34.687Z,6.70
2018-02-15T04:35:08.511Z,8.30
2018-02-15T04:37:42.336Z,7.60
2018-02-15T04:40:16.143Z,7.55
2018-02-15T04:42:50.067Z,7.93
2018-02-15T04:45:23.940Z,8.25
2018-02-15T04:47:58.488Z,8.35
2018-02-15T04:50:33.966Z,9.93
2018-02-15T04:53:08.053Z,8.73
2018-02-15T04:55:41.783Z,8.15
2018-02-15T04:58:35.363Z,8.63
2018-02-15T05:01:09.095Z,8.63
2018-02-15T05:03:42.939Z,8.80
2018-02-15T05:06:16.724Z,8.80
2018-02-15T05:08:51.279Z,10.45
2018-02-15T05:11:25.156Z,8.50
2018-02-15T05:13:59.115Z,13.15
2018-02-15T05:16:32.983Z,7.65
2018-02-15T05:19:06.758Z,8.75
2018-02-15T05:21:40.694Z,8.10
2018-02-15T05:24:14.458Z,9.30
2018-02-15T05:26:48.326Z,8.57
2018-02-15T05:29:22.969Z,8.52
2018-02-15T05:31:57.613Z,8.60
2018-02-15T05:34:31.475Z,8.15
2018-02-15T05:37:05.341Z,8.10
2018-02-15T05:39:39.831Z,9.93
2018-02-15T05:42:14.390Z,8.68
2018-02-15T05:44:48.088Z,10.05
2018-02-15T05:47:21.915Z,8.70
2018-02-15T05:49:56.476Z,10.52
2018-02-15T05:52:30.247Z,16.33
2018-02-15T05:55:04.065Z,9.45
2018-02-15T05:57:38.173Z,8.45
2018-02-15T06:00:12.781Z,11.25
2018-02-15T06:02:46.784Z,8.45
2018-02-15T06:05:20.610Z,8.07
2018-02-15T06:07:55.284Z,7.62
2018-02-15T06:10:29.135Z,9.25
2018-02-15T06:13:02.955Z,8.35
2018-02-15T06:15:37.627Z,9.05
2018-02-15T06:18:12.182Z,8.95
2018-02-15T06:20:46.776Z,8.85
2018-02-15T06:23:21.576Z,9.40
2018-02-15T06:25:56.566Z,9.20
2018-02-15T06:28:30.600Z,9.07
2018-02-15T06:31:04.411Z,8.52
2018-02-15T06:33:40.099Z,10.02
2018-02-15T06:36:13.759Z,8.13
2018-02-15T06:38:47.464Z,8.70
2018-02-15T06:41:21.244Z,9.80
2018-02-15T06:43:55.042Z,9.07
2018-02-15T06:46:28.849Z,9.65
2018-02-15T06:49:02.684Z,10.70
2018-02-15T06:51:37.160Z,8.93
2018-02-15T06:54:11.025Z,8.18
2018-02-15T06:56:44.891Z,9.85
2018-02-15T06:59:19.528Z,8.65
2018-02-15T07:01:54.719Z,8.63
2018-02-15T07:04:29.348Z,8.38
2018-02-15T07:07:03.870Z,7.93
2018-02-15T07:09:38.556Z,7.37
2018-02-15T07:12:19.067Z,8.70
2018-02-15T07:14:52.916Z,7.90
2018-02-15T07:17:26.693Z,9.13
2018-02-15T07:20:01.206Z,7.65
2018-02-15T07:22:35.851Z,9.43
2018-02-15T07:25:10.392Z,7.32
2018-02-15T07:27:44.187Z,9.10
2018-02-15T07:30:18.084Z,8.82
2018-02-15T07:32:51.885Z,8.02
2018-02-15T07:35:25.728Z,8.32
2018-02-15T07:37:59.551Z,7.55
2018-02-15T07:40:34.142Z,7.87
2018-02-15T07:43:08.747Z,7.70
2018-02-15T07:45:43.152Z,8.48
2018-02-15T07:48:17.484Z,10.25
2018-02-15T07:50:52.002Z,8.57
2018-02-15T07:53:26.016Z,8.63
2018-02-15T07:55:59.725Z,8.90
2018-02-15T07:58:34.408Z,8.90
2018-02-15T08:01:09.184Z,8.32
2018-02-15T08:03:44.323Z,8.52
2018-02-15T08:06:18.040Z,7.70
2018-02-15T08:08:51.832Z,7.70
2018-02-15T08:11:25.670Z,8.55
2018-02-15T08:14:00.173Z,8.60
2018-02-15T08:16:34.679Z,7.55
2018-02-15T08:19:08.784Z,8.57
2018-02-15T08:21:42.608Z,8.80
2018-02-15T08:24:17.431Z,7.25
2018-02-15T08:26:53.493Z,11.00
2018-02-15T08:29:27.289Z,8.30
2018-02-15T08:32:01.062Z,10.40
2018-02-15T08:34:34.956Z,9.20
2018-02-15T08:37:08.743Z,9.70
2018-02-15T08:39:44.080Z,9.05
2018-02-15T08:42:17.846Z,8.55
2018-02-15T08:44:52.503Z,10.60
2018-02-15T08:47:27.093Z,9.43
2018-02-15T08:50:00.880Z,9.93
2018-02-15T08:52:36.244Z,10.35
2018-02-15T08:55:10.701Z,11.12
2018-02-15T08:57:44.475Z,9.40
2018-02-15T09:00:19.054Z,8.80
2018-02-15T09:02:52.827Z,8.40
2018-02-15T09:05:26.672Z,9.35
2018-02-15T09:08:01.228Z,10.93
2018-02-15T09:10:35.154Z,10.15
2018-02-15T09:13:09.684Z,13.77
2018-02-15T09:15:43.539Z,8.60
2018-02-15T09:18:17.407Z,8.38
2018-02-15T09:20:51.455Z,9.15
2018-02-15T09:23:25.456Z,7.60
2018-02-15T09:25:59.987Z,10.18
2018-02-15T09:28:33.781Z,9.50
2018-02-15T09:31:07.613Z,8.82
2018-02-15T09:33:41.259Z,9.10
2018-02-15T09:36:15.118Z,8.73
2018-02-15T09:38:49.684Z,9.50
2018-02-15T09:41:23.548Z,10.93
2018-02-15T09:43:57.254Z,10.57
2018-02-15T09:46:32.028Z,9.40
2018-02-15T09:49:07.691Z,11.05
2018-02-15T09:51:41.482Z,9.35
2018-02-15T09:54:15.512Z,20.40
2018-02-15T09:56:49.330Z,11.10
2018-02-15T09:59:23.135Z,11.10
2018-02-15T10:01:56.924Z,11.52
2018-02-15T10:04:30.647Z,10.85
2018-02-15T10:07:04.555Z,10.70
2018-02-15T10:09:38.391Z,11.73
2018-02-15T10:12:12.981Z,12.98
2018-02-15T10:14:46.666Z,11.20
2018-02-15T10:17:20.498Z,13.70
2018-02-15T10:19:54.497Z,11.38
2018-02-15T10:22:28.260Z,12.60
2018-02-15T10:25:02.016Z,13.13
2018-02-15T10:27:36.009Z,11.40
2018-02-15T10:30:09.858Z,15.00
2018-02-15T10:32:43.716Z,13.52
2018-02-15T10:35:21.291Z,11.85
2018-02-15T10:37:55.363Z,13.00
2018-02-15T10:40:29.147Z,12.98
2018-02-15T10:43:02.989Z,12.32
2018-02-15T10:45:36.856Z,11.45
2018-02-15T10:48:10.705Z,11.95
2018-02-15T10:50:44.359Z,12.80
2018-02-15T10:53:19.415Z,13.95
2018-02-15T10:55:55.516Z,13.50
2018-02-15T10:58:29.481Z,13.90
2018-02-15T11:01:08.901Z,16.90
2018-02-15T11:03:44.360Z,14.70
2018-02-15T11:06:18.064Z,13.62
2018-02-15T11:08:52.680Z,15.77
2018-02-15T11:11:27.159Z,15.90
2018-02-15T11:14:01.740Z,15.57
2018-02-15T11:16:35.514Z,14.85
2018-02-15T11:19:09.376Z,16.30
2018-02-15T11:21:43.111Z,14.85
2018-02-15T11:24:17.020Z,15.38
2018-02-15T11:26:50.737Z,14.73
2018-02-15T11:29:24.614Z,14.82
2018-02-15T11:31:58.415Z,14.80
2018-02-15T11:34:32.366Z,14.60
2018-02-15T11:37:06.236Z,17.20
2018-02-15T11:39:39.890Z,15.30
2018-02-15T11:42:14.003Z,13.60
2018-02-15T11:44:47.704Z,14.65
2018-02-15T11:47:22.400Z,13.43
2018-02-15T11:49:56.138Z,15.95
2018-02-15T11:52:30.073Z,13.38
2018-02-15T11:55:03.992Z,15.45
2018-02-15T11:57:37.740Z,14.40
2018-02-15T12:00:11.565Z,14.57
2018-02-15T12:02:46.421Z,14.50
2018-02-15T12:05:20.209Z,14.90
2018-02-15T12:07:54.017Z,16.45
2018-02-15T12:10:27.805Z,13.95
2018-02-15T12:13:02.447Z,16.20
2018-02-15T12:15:36.192Z,12.20
2018-02-15T12:18:10.847Z,11.35
2018-02-15T12:20:44.631Z,14.40
2018-02-15T12:23:18.299Z,14.73
2018-02-15T12:25:52.099Z,14.38
2018-02-15T12:28:25.929Z,15.02
2018-02-15T12:30:59.725Z,14.20
2018-02-15T12:33:34.472Z,14.60
2018-02-15T12:36:11.292Z,15.55
2018-02-15T12:38:45.010Z,13.98
2018-02-15T12:41:18.820Z,15.25
2018-02-15T12:43:53.743Z,14.48
2018-02-15T12:46:27.565Z,14.90
2018-02-15T12:49:01.373Z,11.65
2018-02-15T12:51:35.184Z,14.70
2018-02-15T12:54:12.667Z,13.75
2018-02-15T12:56:47.232Z,11.90
2018-02-15T12:59:21.267Z,13.25
2018-02-15T13:01:55.776Z,11.82
2018-02-15T13:04:30.707Z,12.20
2018-02-15T13:07:04.400Z,12.00
2018-02-15T13:09:38.327Z,11.80
2018-02-15T13:15:22.301Z,13.30
2018-02-15T13:17:56.155Z,12.25
2018-02-15T13:20:30.007Z,13.07
2018-02-15T13:23:05.600Z,17.98
2018-02-15T13:25:39.419Z,11.85
2018-02-15T13:28:25.176Z,13.38
2018-02-15T13:31:01.110Z,11.63
2018-02-15T13:33:34.820Z,12.10
2018-02-15T13:36:09.080Z,12.95
2018-02-15T13:38:43.653Z,11.20
2018-02-15T13:41:17.713Z,14.40
2018-02-15T13:43:52.275Z,12.95
2018-02-15T13:46:26.834Z,12.32
2018-02-15T13:49:00.530Z,12.80
2018-02-15T13:51:34.370Z,13.13
2018-02-15T13:54:08.204Z,13.45
2018-02-15T13:56:42.042Z,14.25
2018-02-15T13:59:16.546Z,13.62
2018-02-15T14:01:50.411Z,12.73
2018-02-15T14:04:25.096Z,13.43
2018-02-15T14:06:58.945Z,14.38
2018-02-15T14:09:33.533Z,12.93
2018-02-15T14:12:07.264Z,12.88
2018-02-15T14:14:41.483Z,15.93
2018-02-15T14:17:15.972Z,12.25
2018-02-15T14:19:50.527Z,13.00
2018-02-15T14:22:24.260Z,12.93
2018-02-15T14:24:58.106Z,12.25
2018-02-15T14:27:31.955Z,11.48
2018-02-15T14:30:05.753Z,13.10
2018-02-15T14:32:40.255Z,11.77
2018-02-15T14:35:14.102Z,11.35
2018-02-15T14:37:47.925Z,13.55
2018-02-15T14:40:22.633Z,12.50
2018-02-15T14:42:56.460Z,14.45
2018-02-15T14:45:31.028Z,13.18
2018-02-15T14:48:04.723Z,12.88
2018-02-15T14:50:40.242Z,13.02
2018-02-15T14:53:13.984Z,12.27
2018-02-15T14:55:48.003Z,12.80
2018-02-15T14:58:21.707Z,13.23
2018-02-15T15:00:55.569Z,13.13
2018-02-15T15:03:31.401Z,12.65
2018-02-15T15:06:05.047Z,12.68
2018-02-15T15:08:38.863Z,14.70
2018-02-15T15:11:12.566Z,14.70
2018-02-15T15:13:46.356Z,11.93
2018-02-15T15:16:20.726Z,12.15
2018-02-15T15:18:54.442Z,14.70
2018-02-15T15:21:29.295Z,11.98
2018-02-15T15:24:02.890Z,14.55
2018-02-15T15:26:37.481Z,11.52
2018-02-15T15:29:11.436Z,14.32
2018-02-15T15:31:45.256Z,11.05
2018-02-15T15:34:18.999Z,13.77
2018-02-15T15:36:52.828Z,14.80
2018-02-15T15:39:26.564Z,13.75
2018-02-15T15:42:00.275Z,13.20
2018-02-15T15:44:34.215Z,14.57
2018-02-15T15:47:08.324Z,13.45
2018-02-15T15:49:43.297Z,14.20
2018-02-15T15:52:18.103Z,13.60
2018-02-15T15:54:52.684Z,15.95
2018-02-15T15:57:26.456Z,15.23
2018-02-15T16:00:00.236Z,20.83
2018-02-15T16:02:34.183Z,17.58
2018-02-15T16:05:08.033Z,13.95
2018-02-15T16:07:42.036Z,14.13
2018-02-15T16:10:15.707Z,16.20
2018-02-15T16:12:49.499Z,37.20
2018-02-15T16:15:23.341Z,14.75
2018-02-15T16:17:57.071Z,16.77
2018-02-15T16:20:30.827Z,15.38
2018-02-15T16:23:05.470Z,16.08
2018-02-15T16:25:39.211Z,13.95
2018-02-15T16:28:12.934Z,13.45
2018-02-15T16:30:46.697Z,14.30
2018-02-15T16:33:20.435Z,14.65
2018-02-15T16:35:54.333Z,14.07
2018-02-15T16:38:28.060Z,15.23
2018-02-15T16:41:02.810Z,13.95
2018-02-15T16:43:37.320Z,13.50
2018-02-15T16:46:11.143Z,14.70
2018-02-15T16:48:44.919Z,14.40
2018-02-15T16:51:19.651Z,12.45
2018-02-15T16:53:53.443Z,13.25
2018-02-15T16:56:27.221Z,11.45
2018-02-15T16:59:01.345Z,14.05
2018-02-15T17:01:35.129Z,17.60
2018-02-15T17:04:09.967Z,14.23
2018-02-15T17:06:43.747Z,16.50
2018-02-15T17:09:18.300Z,17.20
2018-02-15T17:11:52.785Z,16.75
2018-02-15T17:14:26.827Z,15.80
2018-02-15T17:17:01.359Z,14.70
2018-02-15T17:19:35.099Z,16.80
2018-02-15T17:22:08.881Z,16.35
2018-02-15T17:24:43.496Z,15.82
2018-02-15T17:27:17.297Z,15.25
2018-02-15T17:29:51.327Z,15.27
2018-02-15T17:32:25.890Z,16.33
2018-02-15T17:34:59.679Z,15.45
2018-02-15T17:37:33.482Z,16.02
2018-02-15T17:40:08.100Z,15.98
2018-02-15T17:42:41.899Z,16.20
2018-02-15T17:45:15.764Z,19.27
2018-02-15T17:47:50.229Z,13.77
2018-02-15T17:50:24.143Z,15.60
2018-02-15T17:52:57.900Z,14.32
2018-02-15T17:55:31.794Z,14.65
2018-02-15T17:58:05.596Z,13.73
2018-02-15T18:00:39.480Z,14.10
2018-02-15T18:03:14.470Z,15.25
2018-02-15T18:05:48.193Z,13.80
2018-02-15T18:08:21.939Z,15.00
2018-02-15T18:10:55.738Z,14.77
2018-02-15T18:13:29.477Z,14.82
2018-02-15T18:16:03.914Z,16.20
2018-02-15T18:18:38.443Z,16.52
2018-02-15T18:21:13.560Z,15.70
2018-02-15T18:23:47.383Z,16.08
2018-02-15T18:26:21.228Z,19.10
2018-02-15T18:28:55.016Z,17.33
2018-02-15T18:31:28.809Z,17.15
2018-02-15T18:34:02.637Z,16.85
2018-02-15T18:36:37.894Z,18.85
2018-02-15T18:39:11.867Z,20.80
2018-02-15T18:41:45.588Z,18.98
2018-02-15T18:44:19.483Z,18.23
2018-02-15T18:46:53.301Z,19.45
2018-02-15T18:49:27.885Z,19.42
2018-02-15T18:52:01.618Z,17.80
2018-02-15T18:54:35.420Z,18.50
2018-02-15T18:57:09.273Z,18.35
2018-02-15T18:59:43.702Z,18.45
2018-02-15T19:02:17.665Z,17.05
2018-02-15T19:04:51.482Z,17.95
2018-02-15T19:07:25.336Z,18.08
2018-02-15T19:09:59.976Z,18.12
2018-02-15T19:12:33.781Z,18.67
2018-02-15T19:15:07.855Z,21.90
2018-02-15T19:17:41.755Z,19.05
2018-02-15T19:20:15.607Z,19.30
2018-02-15T19:22:49.747Z,18.35
2018-02-15T19:25:23.426Z,18.83
2018-02-15T19:27:58.081Z,18.98
2018-02-15T19:30:31.764Z,20.15
2018-02-15T19:33:05.536Z,20.23
2018-02-15T19:35:40.123Z,21.50
2018-02-15T19:38:13.810Z,18.87
2018-02-15T19:40:48.432Z,20.35
2018-02-15T19:43:22.106Z,21.98
2018-02-15T19:45:55.994Z,20.95
2018-02-15T19:48:29.761Z,20.20
2018-02-15T19:51:03.756Z,19.62
2018-02-15T19:53:37.556Z,21.12
2018-02-15T19:56:11.302Z,19.87
2018-02-15T19:58:45.872Z,22.05
2018-02-15T20:01:19.748Z,20.60
2018-02-15T20:03:54.317Z,20.05
2018-02-15T20:06:28.797Z,22.40
2018-02-15T20:09:02.544Z,18.55
2018-02-15T20:11:36.217Z,20.25
2018-02-15T20:14:10.081Z,18.40
2018-02-15T20:16:43.877Z,19.77
2018-02-15T20:19:17.879Z,17.73
2018-02-15T20:21:51.650Z,20.12
2018-02-15T20:24:25.374Z,21.08
2018-02-15T20:27:05.639Z,21.80
2018-02-15T20:29:39.422Z,21.10
2018-02-15T20:32:14.816Z,20.50
2018-02-15T20:34:49.403Z,19.40
2018-02-15T20:37:25.227Z,20.20
2018-02-15T20:40:04.759Z,23.35
2018-02-15T20:42:39.040Z,20.25
2018-02-15T20:45:12.768Z,18.87
2018-02-15T20:47:46.531Z,21.85
2018-02-15T20:50:25.990Z,18.37
2018-02-15T20:56:00.499Z,21.20
2018-02-15T20:58:34.280Z,20.65
2018-02-15T21:01:08.109Z,22.13
2018-02-15T21:03:42.235Z,19.40
2018-02-15T21:06:16.059Z,20.52
2018-02-15T21:08:49.907Z,19.87
2018-02-15T21:11:24.488Z,20.75
2018-02-15T21:13:58.344Z,22.52
2018-02-15T21:16:33.314Z,22.52
2018-02-15T21:19:07.156Z,21.23
2018-02-15T21:21:41.632Z,20.80
2018-02-15T21:24:16.168Z,20.85
2018-02-15T21:26:49.978Z,20.73
2018-02-15T21:29:23.812Z,20.00
2018-02-15T21:31:57.597Z,19.27
2018-02-15T21:34:32.951Z,19.58
2018-02-15T21:37:07.511Z,20.00
2018-02-15T21:39:41.984Z,20.37
2018-02-15T21:42:16.578Z,24.90
2018-02-15T21:44:50.402Z,22.15
2018-02-15T21:47:24.256Z,22.15
2018-02-15T21:49:57.971Z,23.52
2018-02-15T21:52:31.828Z,22.13
2018-02-15T21:55:05.675Z,27.92
2018-02-15T21:57:39.744Z,24.00
